Wolf Lake, IL (62998)

4:59 PM CDT on July 29, 2016 (GMT -0500)
Egypt Mills | | Change Station

Elev 361 ft 37.35 °N, 89.48 °W | Updated 30 seconds ago

Clear
Clear
83.5 °F
Feels Like 95 °F
N
0.0
Wind Variable Wind from South
Gusts 0.0 mph

Today
High -- | Low -- °F
--% Chance of Precip.
Yesterday
High -- | Low -- °F
Precip. -- in
Pressure 29.91 in
Visibility 10.0 miles
Clouds Clear
Heat Index 95 °F
Dew Point 79 °F
Humidity 87%
Rainfall 0.00 in
Snow Depth Not available.
5:59 AM 8:08 PM
Waning Crescent, 19% visible
METAR KMDH 292152Z AUTO 21005KT 10SM CLR 26/22 A2992 RMK AO2 RAE08 SLP129 P0000 T02560222
Pressure 29.91 in
Visibility 10.0 miles
Clouds Clear
Heat Index 95 °F
Dew Point 79 °F
Humidity 87%
Rainfall 0.00 in
Snow Depth Not available.
5:59 AM 8:08 PM
Waning Crescent, 19% visible
METAR KMDH 292152Z AUTO 21005KT 10SM CLR 26/22 A2992 RMK AO2 RAE08 SLP129 P0000 T02560222

10-Day Weather Forecast

Almanac

Astronomy

Jul. 29, 2016 Rise Set
Actual Time
Civil Twilight
Nautical Twilight
Astronomical Twilight
Moon
Length of Visible Light
Length of Day
Tomorrow will be .
, % of the Moon is Illuminated

Today's Extremes

State Highs State Lows

Community

WunderPhotos

Upload Photos

1,928,423 photos uploaded!

WunderBlog® & News

Nearby

Air Quality

  Air Quality AQ Index Pollutant
Not available.

Snow Depth

Station Depth Elevation

Earthquake Activity

City Distance Mag. Time & Date
Minimum magnitude displayed is 2.5.

Coastal Water Temperatures

Place Temperature

Stations

Nearby Weather Stations

Station Location Temp. Windchill Dew Point Humidity Wind Precip. Elev Updated Type
                   

Watches & Warnings

There are currently no watches in effect.